sensor_id;sensor_type;location;lat;lon;timestamp;pressure;altitude;pressure_sealevel;temperature;humidity
60642;BME280;46837;52.446;-1.930;2023-03-17T00:00:09;98792.58;;;10.60;94.71
60642;BME280;46837;52.446;-1.930;2023-03-17T00:01:09;98793.69;;;10.58;94.68
60642;BME280;46837;52.446;-1.930;2023-03-17T00:02:09;98795.00;;;10.61;94.86
60642;BME280;46837;52.446;-1.930;2023-03-17T00:03:12;98792.03;;;10.63;94.60
60642;BME280;46837;52.446;-1.930;2023-03-17T00:04:11;98797.87;;;10.63;94.57
60642;BME280;46837;52.446;-1.930;2023-03-17T00:05:22;98796.45;;;10.63;94.54
60642;BME280;46837;52.446;-1.930;2023-03-17T00:06:13;98792.56;;;10.60;94.66
60642;BME280;46837;52.446;-1.930;2023-03-17T00:07:09;98788.99;;;10.59;94.69
60642;BME280;46837;52.446;-1.930;2023-03-17T00:08:16;98797.72;;;10.59;94.75
60642;BME280;46837;52.446;-1.930;2023-03-17T00:09:13;98794.63;;;10.58;94.70
60642;BME280;46837;52.446;-1.930;2023-03-17T00:10:14;98797.29;;;10.61;94.82
60642;BME280;46837;52.446;-1.930;2023-03-17T00:11:14;98790.58;;;10.58;94.65
60642;BME280;46837;52.446;-1.930;2023-03-17T00:12:09;98791.73;;;10.56;94.71
60642;BME280;46837;52.446;-1.930;2023-03-17T00:13:10;98790.65;;;10.57;94.91
60642;BME280;46837;52.446;-1.930;2023-03-17T00:14:09;98791.57;;;10.61;94.91
60642;BME280;46837;52.446;-1.930;2023-03-17T00:15:09;98794.24;;;10.61;94.68
60642;BME280;46837;52.446;-1.930;2023-03-17T00:16:17;98791.84;;;10.56;94.67
60642;BME280;46837;52.446;-1.930;2023-03-17T00:17:10;98791.31;;;10.57;94.98
60642;BME280;46837;52.446;-1.930;2023-03-17T00:18:14;98797.80;;;10.58;94.84
60642;BME280;46837;52.446;-1.930;2023-03-17T00:19:16;98795.17;;;10.61;94.75
60642;BME280;46837;52.446;-1.930;2023-03-17T00:20:12;98797.99;;;10.62;94.55
60642;BME280;46837;52.446;-1.930;2023-03-17T00:21:14;98793.37;;;10.58;94.48
60642;BME280;46837;52.446;-1.930;2023-03-17T00:22:16;98790.92;;;10.58;94.67
60642;BME280;46837;52.446;-1.930;2023-03-17T00:23:12;98796.54;;;10.53;94.74
60642;BME280;46837;52.446;-1.930;2023-03-17T00:24:11;98792.56;;;10.55;95.00
60642;BME280;46837;52.446;-1.930;2023-03-17T00:25:16;98792.39;;;10.58;94.84
60642;BME280;46837;52.446;-1.930;2023-03-17T00:26:09;98796.00;;;10.60;94.61
60642;BME280;46837;52.446;-1.930;2023-03-17T00:27:11;98789.66;;;10.58;94.48
60642;BME280;46837;52.446;-1.930;2023-03-17T00:28:14;98794.22;;;10.60;94.43
60642;BME280;46837;52.446;-1.930;2023-03-17T00:29:09;98793.63;;;10.56;94.44
60642;BME280;46837;52.446;-1.930;2023-03-17T00:30:09;98792.71;;;10.58;94.61
60642;BME280;46837;52.446;-1.930;2023-03-17T00:31:14;98797.70;;;10.57;94.41
60642;BME280;46837;52.446;-1.930;2023-03-17T00:32:15;98794.96;;;10.57;94.60
60642;BME280;46837;52.446;-1.930;2023-03-17T00:33:09;98796.21;;;10.58;94.55
60642;BME280;46837;52.446;-1.930;2023-03-17T00:34:12;98795.52;;;10.55;94.48
60642;BME280;46837;52.446;-1.930;2023-03-17T00:35:14;98795.08;;;10.57;94.69
60642;BME280;46837;52.446;-1.930;2023-03-17T00:36:12;98796.77;;;10.60;94.55
60642;BME280;46837;52.446;-1.930;2023-03-17T00:37:09;98794.57;;;10.58;94.37
60642;BME280;46837;52.446;-1.930;2023-03-17T00:38:17;98794.27;;;10.57;94.36
60642;BME280;46837;52.446;-1.930;2023-03-17T00:39:12;98791.57;;;10.58;94.47
60642;BME280;46837;52.446;-1.930;2023-03-17T00:40:17;98792.75;;;10.60;94.42
60642;BME280;46837;52.446;-1.930;2023-03-17T00:41:09;98793.29;;;10.62;94.33
60642;BME280;46837;52.446;-1.930;2023-03-17T00:42:09;98792.53;;;10.62;94.10
60642;BME280;46837;52.446;-1.930;2023-03-17T00:43:10;98793.36;;;10.64;94.13
60642;BME280;46837;52.446;-1.930;2023-03-17T00:44:09;98797.40;;;10.62;94.10
60642;BME280;46837;52.446;-1.930;2023-03-17T00:45:09;98798.50;;;10.63;94.16
60642;BME280;46837;52.446;-1.930;2023-03-17T00:47:09;98794.34;;;10.64;94.01
60642;BME280;46837;52.446;-1.930;2023-03-17T00:48:14;98793.71;;;10.66;94.18
60642;BME280;46837;52.446;-1.930;2023-03-17T00:49:14;98790.40;;;10.65;93.91
60642;BME280;46837;52.446;-1.930;2023-03-17T00:50:15;98793.04;;;10.64;93.96
60642;BME280;46837;52.446;-1.930;2023-03-17T00:51:09;98794.62;;;10.64;94.01
60642;BME280;46837;52.446;-1.930;2023-03-17T00:52:09;98797.02;;;10.64;93.97
60642;BME280;46837;52.446;-1.930;2023-03-17T00:53:13;98791.59;;;10.63;93.96
60642;BME280;46837;52.446;-1.930;2023-03-17T00:54:09;98798.46;;;10.58;94.04
60642;BME280;46837;52.446;-1.930;2023-03-17T00:55:09;98792.70;;;10.50;94.26
60642;BME280;46837;52.446;-1.930;2023-03-17T00:56:14;98792.75;;;10.51;94.54
60642;BME280;46837;52.446;-1.930;2023-03-17T00:57:09;98798.09;;;10.49;94.54
60642;BME280;46837;52.446;-1.930;2023-03-17T01:00:17;98791.26;;;10.57;94.25
60642;BME280;46837;52.446;-1.930;2023-03-17T01:01:09;98790.75;;;10.58;94.22
60642;BME280;46837;52.446;-1.930;2023-03-17T01:02:10;98791.79;;;10.60;94.18
60642;BME280;46837;52.446;-1.930;2023-03-17T01:03:11;98791.73;;;10.58;93.98
60642;BME280;46837;52.446;-1.930;2023-03-17T01:04:09;98794.63;;;10.60;93.93
60642;BME280;46837;52.446;-1.930;2023-03-17T01:05:09;98794.76;;;10.57;93.66
60642;BME280;46837;52.446;-1.930;2023-03-17T01:06:10;98797.66;;;10.53;93.78
60642;BME280;46837;52.446;-1.930;2023-03-17T01:07:09;98788.59;;;10.49;93.80
60642;BME280;46837;52.446;-1.930;2023-03-17T01:08:09;98794.99;;;10.45;93.70
60642;BME280;46837;52.446;-1.930;2023-03-17T01:09:13;98791.41;;;10.38;93.93
60642;BME280;46837;52.446;-1.930;2023-03-17T01:10:15;98788.40;;;10.38;94.22
60642;BME280;46837;52.446;-1.930;2023-03-17T01:11:13;98788.31;;;10.36;94.08
60642;BME280;46837;52.446;-1.930;2023-03-17T01:12:11;98791.71;;;10.32;94.07
60642;BME280;46837;52.446;-1.930;2023-03-17T01:13:11;98787.27;;;10.28;94.18
60642;BME280;46837;52.446;-1.930;2023-03-17T01:14:09;98789.16;;;10.29;94.27
60642;BME280;46837;52.446;-1.930;2023-03-17T01:15:09;98789.81;;;10.26;94.24
60642;BME280;46837;52.446;-1.930;2023-03-17T01:16:11;98789.95;;;10.23;94.15
60642;BME280;46837;52.446;-1.930;2023-03-17T01:17:13;98786.08;;;10.19;94.14
60642;BME280;46837;52.446;-1.930;2023-03-17T01:18:09;98785.75;;;10.16;94.30
60642;BME280;46837;52.446;-1.930;2023-03-17T01:19:10;98789.51;;;10.14;94.29
60642;BME280;46837;52.446;-1.930;2023-03-17T01:20:15;98789.58;;;10.13;94.41
60642;BME280;46837;52.446;-1.930;2023-03-17T01:21:09;98790.37;;;10.11;94.31
60642;BME280;46837;52.446;-1.930;2023-03-17T01:22:09;98787.31;;;10.08;94.45
60642;BME280;46837;52.446;-1.930;2023-03-17T01:23:09;98785.28;;;10.06;94.45
60642;BME280;46837;52.446;-1.930;2023-03-17T01:24:09;98788.72;;;10.02;94.72
60642;BME280;46837;52.446;-1.930;2023-03-17T01:25:09;98788.02;;;10.02;94.96
60642;BME280;46837;52.446;-1.930;2023-03-17T01:26:09;98787.08;;;10.00;95.02
60642;BME280;46837;52.446;-1.930;2023-03-17T01:27:09;98787.46;;;10.03;95.09
60642;BME280;46837;52.446;-1.930;2023-03-17T01:28:13;98787.76;;;10.04;94.91
60642;BME280;46837;52.446;-1.930;2023-03-17T01:29:09;98786.09;;;10.03;94.76
60642;BME280;46837;52.446;-1.930;2023-03-17T01:30:20;98787.94;;;10.04;94.87
60642;BME280;46837;52.446;-1.930;2023-03-17T01:31:09;98787.14;;;10.02;94.77
60642;BME280;46837;52.446;-1.930;2023-03-17T01:32:09;98788.39;;;10.03;94.93
60642;BME280;46837;52.446;-1.930;2023-03-17T01:33:09;98789.66;;;10.05;94.92
60642;BME280;46837;52.446;-1.930;2023-03-17T01:34:09;98789.48;;;10.07;94.85
60642;BME280;46837;52.446;-1.930;2023-03-17T01:35:09;98786.49;;;10.08;94.70
60642;BME280;46837;52.446;-1.930;2023-03-17T01:36:09;98787.54;;;10.07;94.60
60642;BME280;46837;52.446;-1.930;2023-03-17T01:37:09;98787.95;;;10.09;94.59
60642;BME280;46837;52.446;-1.930;2023-03-17T01:38:09;98789.05;;;10.09;94.52
60642;BME280;46837;52.446;-1.930;2023-03-17T01:39:09;98787.75;;;10.11;94.50
60642;BME280;46837;52.446;-1.930;2023-03-17T01:40:13;98791.56;;;10.11;94.35
60642;BME280;46837;52.446;-1.930;2023-03-17T01:41:09;98791.05;;;10.10;94.30
60642;BME280;46837;52.446;-1.930;2023-03-17T01:42:09;98787.58;;;10.09;94.23
60642;BME280;46837;52.446;-1.930;2023-03-17T01:44:13;98784.90;;;10.00;94.35
60642;BME280;46837;52.446;-1.930;2023-03-17T01:46:17;98786.70;;;10.00;94.58
60642;BME280;46837;52.446;-1.930;2023-03-17T01:47:09;98786.83;;;10.01;94.43
60642;BME280;46837;52.446;-1.930;2023-03-17T01:48:09;98786.18;;;10.01;94.27
60642;BME280;46837;52.446;-1.930;2023-03-17T01:49:15;98784.65;;;9.97;94.07
60642;BME280;46837;52.446;-1.930;2023-03-17T01:50:09;98783.34;;;9.94;94.15
60642;BME280;46837;52.446;-1.930;2023-03-17T01:51:12;98780.89;;;9.91;94.25
60642;BME280;46837;52.446;-1.930;2023-03-17T01:52:14;98784.88;;;9.90;94.38
60642;BME280;46837;52.446;-1.930;2023-03-17T01:53:09;98787.70;;;9.89;94.36
60642;BME280;46837;52.446;-1.930;2023-03-17T01:54:13;98790.42;;;9.89;94.45
60642;BME280;46837;52.446;-1.930;2023-03-17T01:55:09;98789.67;;;9.88;94.49
60642;BME280;46837;52.446;-1.930;2023-03-17T01:56:09;98785.21;;;9.90;94.52
60642;BME280;46837;52.446;-1.930;2023-03-17T01:57:18;98785.47;;;9.88;94.27
60642;BME280;46837;52.446;-1.930;2023-03-17T01:58:09;98788.25;;;9.88;94.23
60642;BME280;46837;52.446;-1.930;2023-03-17T01:59:10;98787.71;;;9.87;94.13
60642;BME280;46837;52.446;-1.930;2023-03-17T02:00:10;98786.35;;;9.88;94.25
60642;BME280;46837;52.446;-1.930;2023-03-17T02:01:09;98787.48;;;9.85;94.20
60642;BME280;46837;52.446;-1.930;2023-03-17T02:02:09;98787.31;;;9.86;94.31
60642;BME280;46837;52.446;-1.930;2023-03-17T02:03:09;98785.36;;;9.85;94.09
60642;BME280;46837;52.446;-1.930;2023-03-17T02:04:09;98791.37;;;9.84;94.14
60642;BME280;46837;52.446;-1.930;2023-03-17T02:05:10;98791.38;;;9.83;94.02
60642;BME280;46837;52.446;-1.930;2023-03-17T02:06:09;98786.52;;;9.80;94.04
60642;BME280;46837;52.446;-1.930;2023-03-17T02:07:09;98786.95;;;9.81;94.08
60642;BME280;46837;52.446;-1.930;2023-03-17T02:08:14;98788.73;;;9.83;94.06
60642;BME280;46837;52.446;-1.930;2023-03-17T02:09:09;98783.39;;;9.82;93.80
60642;BME280;46837;52.446;-1.930;2023-03-17T02:10:09;98784.77;;;9.80;93.59
60642;BME280;46837;52.446;-1.930;2023-03-17T02:11:09;98779.91;;;9.78;93.39
60642;BME280;46837;52.446;-1.930;2023-03-17T02:12:09;98779.57;;;9.79;93.57
60642;BME280;46837;52.446;-1.930;2023-03-17T02:13:09;98778.66;;;9.77;93.51
60642;BME280;46837;52.446;-1.930;2023-03-17T02:14:09;98781.12;;;9.73;93.27
60642;BME280;46837;52.446;-1.930;2023-03-17T02:15:09;98781.82;;;9.71;93.35
60642;BME280;46837;52.446;-1.930;2023-03-17T02:16:13;98780.24;;;9.67;93.35
60642;BME280;46837;52.446;-1.930;2023-03-17T02:17:09;98778.05;;;9.68;93.48
60642;BME280;46837;52.446;-1.930;2023-03-17T02:18:09;98780.04;;;9.69;93.38
60642;BME280;46837;52.446;-1.930;2023-03-17T02:19:09;98785.87;;;9.66;93.08
60642;BME280;46837;52.446;-1.930;2023-03-17T02:22:09;98780.96;;;9.69;93.29
60642;BME280;46837;52.446;-1.930;2023-03-17T02:23:09;98786.08;;;9.71;93.22
60642;BME280;46837;52.446;-1.930;2023-03-17T02:24:15;98781.93;;;9.72;93.27
60642;BME280;46837;52.446;-1.930;2023-03-17T02:25:09;98783.31;;;9.73;93.26
60642;BME280;46837;52.446;-1.930;2023-03-17T02:26:09;98777.24;;;9.74;93.43
60642;BME280;46837;52.446;-1.930;2023-03-17T02:27:15;98776.64;;;9.74;93.69
60642;BME280;46837;52.446;-1.930;2023-03-17T02:28:12;98775.87;;;9.78;93.86
60642;BME280;46837;52.446;-1.930;2023-03-17T02:29:09;98774.69;;;9.79;93.97
60642;BME280;46837;52.446;-1.930;2023-03-17T02:30:12;98772.12;;;9.80;93.94
60642;BME280;46837;52.446;-1.930;2023-03-17T02:31:09;98773.53;;;9.84;94.03
60642;BME280;46837;52.446;-1.930;2023-03-17T02:32:09;98773.73;;;9.85;93.81
60642;BME280;46837;52.446;-1.930;2023-03-17T02:33:09;98772.60;;;9.84;93.86
60642;BME280;46837;52.446;-1.930;2023-03-17T02:34:09;98770.52;;;9.84;93.94
60642;BME280;46837;52.446;-1.930;2023-03-17T02:35:09;98762.66;;;9.82;94.16
60642;BME280;46837;52.446;-1.930;2023-03-17T02:36:09;98771.82;;;9.82;94.38
60642;BME280;46837;52.446;-1.930;2023-03-17T02:37:09;98770.41;;;9.82;94.47
60642;BME280;46837;52.446;-1.930;2023-03-17T02:38:09;98767.95;;;9.86;94.50
60642;BME280;46837;52.446;-1.930;2023-03-17T02:39:09;98767.03;;;9.88;94.35
60642;BME280;46837;52.446;-1.930;2023-03-17T02:40:09;98764.04;;;9.87;94.30
60642;BME280;46837;52.446;-1.930;2023-03-17T02:41:09;98766.81;;;9.85;94.79
60642;BME280;46837;52.446;-1.930;2023-03-17T02:42:09;98764.74;;;9.85;95.01
60642;BME280;46837;52.446;-1.930;2023-03-17T02:43:09;98761.67;;;9.86;95.10
60642;BME280;46837;52.446;-1.930;2023-03-17T02:44:09;98754.91;;;9.88;95.09
60642;BME280;46837;52.446;-1.930;2023-03-17T02:45:09;98758.81;;;9.86;95.07
60642;BME280;46837;52.446;-1.930;2023-03-17T02:46:09;98765.82;;;9.85;95.54
60642;BME280;46837;52.446;-1.930;2023-03-17T02:47:09;98762.77;;;9.85;95.80
60642;BME280;46837;52.446;-1.930;2023-03-17T02:48:09;98760.36;;;9.89;95.61
60642;BME280;46837;52.446;-1.930;2023-03-17T02:49:09;98758.18;;;9.89;95.42
60642;BME280;46837;52.446;-1.930;2023-03-17T02:50:10;98764.07;;;9.92;95.34
60642;BME280;46837;52.446;-1.930;2023-03-17T02:51:09;98758.89;;;9.94;95.33
60642;BME280;46837;52.446;-1.930;2023-03-17T02:52:09;98756.93;;;9.94;95.38
60642;BME280;46837;52.446;-1.930;2023-03-17T02:53:09;98757.76;;;9.90;95.53
60642;BME280;46837;52.446;-1.930;2023-03-17T02:54:09;98755.40;;;9.91;95.61
60642;BME280;46837;52.446;-1.930;2023-03-17T02:55:09;98750.82;;;9.91;95.40
60642;BME280;46837;52.446;-1.930;2023-03-17T02:56:09;98754.97;;;9.94;95.27
60642;BME280;46837;52.446;-1.930;2023-03-17T02:57:09;98753.77;;;9.94;95.19
60642;BME280;46837;52.446;-1.930;2023-03-17T02:58:09;98756.55;;;9.95;94.98
60642;BME280;46837;52.446;-1.930;2023-03-17T02:59:09;98757.97;;;9.91;94.86
60642;BME280;46837;52.446;-1.930;2023-03-17T03:00:09;98760.69;;;9.89;95.02
60642;BME280;46837;52.446;-1.930;2023-03-17T03:01:09;98758.69;;;9.87;95.15
60642;BME280;46837;52.446;-1.930;2023-03-17T03:02:09;98760.93;;;9.87;95.17
60642;BME280;46837;52.446;-1.930;2023-03-17T03:03:09;98762.59;;;9.86;95.08
60642;BME280;46837;52.446;-1.930;2023-03-17T03:04:09;98764.69;;;9.87;95.18
60642;BME280;46837;52.446;-1.930;2023-03-17T03:05:09;98766.11;;;9.87;95.07
60642;BME280;46837;52.446;-1.930;2023-03-17T03:06:09;98763.80;;;9.88;95.11
60642;BME280;46837;52.446;-1.930;2023-03-17T03:07:09;98764.40;;;9.88;95.21
60642;BME280;46837;52.446;-1.930;2023-03-17T03:08:09;98760.48;;;9.91;95.12
60642;BME280;46837;52.446;-1.930;2023-03-17T03:09:09;98758.90;;;9.94;95.00
60642;BME280;46837;52.446;-1.930;2023-03-17T03:10:09;98758.99;;;9.92;94.67
60642;BME280;46837;52.446;-1.930;2023-03-17T03:11:09;98760.43;;;9.91;94.97
60642;BME280;46837;52.446;-1.930;2023-03-17T03:12:09;98757.47;;;9.92;95.06
60642;BME280;46837;52.446;-1.930;2023-03-17T03:13:09;98764.61;;;9.93;95.07
60642;BME280;46837;52.446;-1.930;2023-03-17T03:14:09;98761.67;;;9.89;95.18
60642;BME280;46837;52.446;-1.930;2023-03-17T03:15:09;98763.75;;;9.91;95.40
60642;BME280;46837;52.446;-1.930;2023-03-17T03:16:09;98757.65;;;9.93;95.25
60642;BME280;46837;52.446;-1.930;2023-03-17T03:17:09;98758.61;;;9.96;95.12
60642;BME280;46837;52.446;-1.930;2023-03-17T03:18:09;98752.07;;;9.95;94.97
60642;BME280;46837;52.446;-1.930;2023-03-17T03:19:09;98761.20;;;9.94;95.10
60642;BME280;46837;52.446;-1.930;2023-03-17T03:20:09;98757.08;;;9.93;95.16
60642;BME280;46837;52.446;-1.930;2023-03-17T03:21:09;98761.02;;;9.95;95.10
60642;BME280;46837;52.446;-1.930;2023-03-17T03:22:09;98760.41;;;9.96;95.04
60642;BME280;46837;52.446;-1.930;2023-03-17T03:23:09;98760.57;;;9.96;94.92
60642;BME280;46837;52.446;-1.930;2023-03-17T03:24:09;98762.60;;;9.95;94.95
60642;BME280;46837;52.446;-1.930;2023-03-17T03:25:09;98763.71;;;9.93;94.92
60642;BME280;46837;52.446;-1.930;2023-03-17T03:26:09;98759.31;;;9.93;95.00
60642;BME280;46837;52.446;-1.930;2023-03-17T03:27:09;98759.94;;;9.91;94.96
60642;BME280;46837;52.446;-1.930;2023-03-17T03:28:09;98764.34;;;9.92;94.95
60642;BME280;46837;52.446;-1.930;2023-03-17T03:29:09;98763.71;;;9.93;94.77
60642;BME280;46837;52.446;-1.930;2023-03-17T03:30:10;98764.07;;;9.91;94.54
60642;BME280;46837;52.446;-1.930;2023-03-17T03:31:09;98762.55;;;9.94;94.69
60642;BME280;46837;52.446;-1.930;2023-03-17T03:32:09;98760.20;;;9.92;94.54
60642;BME280;46837;52.446;-1.930;2023-03-17T03:33:09;98762.23;;;9.90;94.58
60642;BME280;46837;52.446;-1.930;2023-03-17T03:34:09;98761.96;;;9.91;94.69
60642;BME280;46837;52.446;-1.930;2023-03-17T03:35:09;98763.74;;;9.92;94.73
60642;BME280;46837;52.446;-1.930;2023-03-17T03:36:09;98764.23;;;9.92;94.72
60642;BME280;46837;52.446;-1.930;2023-03-17T03:37:09;98762.47;;;9.97;94.75
60642;BME280;46837;52.446;-1.930;2023-03-17T03:38:10;98763.59;;;9.95;94.50
60642;BME280;46837;52.446;-1.930;2023-03-17T03:39:09;98766.37;;;9.98;94.63
60642;BME280;46837;52.446;-1.930;2023-03-17T03:40:09;98766.52;;;9.99;94.45
60642;BME280;46837;52.446;-1.930;2023-03-17T03:41:09;98764.49;;;9.99;94.48
60642;BME280;46837;52.446;-1.930;2023-03-17T03:42:09;98762.58;;;10.00;94.37
60642;BME280;46837;52.446;-1.930;2023-03-17T03:43:09;98765.63;;;10.00;94.26
60642;BME280;46837;52.446;-1.930;2023-03-17T03:44:09;98764.23;;;9.98;94.22
60642;BME280;46837;52.446;-1.930;2023-03-17T03:45:09;98767.77;;;10.02;94.44
60642;BME280;46837;52.446;-1.930;2023-03-17T03:46:09;98765.54;;;10.04;94.30
60642;BME280;46837;52.446;-1.930;2023-03-17T03:47:09;98765.16;;;10.04;93.88
60642;BME280;46837;52.446;-1.930;2023-03-17T03:48:09;98761.88;;;10.05;94.06
60642;BME280;46837;52.446;-1.930;2023-03-17T03:49:09;98763.44;;;10.07;94.01
60642;BME280;46837;52.446;-1.930;2023-03-17T03:50:09;98769.46;;;10.04;93.91
60642;BME280;46837;52.446;-1.930;2023-03-17T03:51:09;98767.83;;;10.01;94.11
60642;BME280;46837;52.446;-1.930;2023-03-17T03:52:09;98768.37;;;10.02;94.18
60642;BME280;46837;52.446;-1.930;2023-03-17T03:53:09;98768.03;;;10.03;94.16
60642;BME280;46837;52.446;-1.930;2023-03-17T03:54:09;98767.32;;;10.03;94.18
60642;BME280;46837;52.446;-1.930;2023-03-17T03:55:09;98766.88;;;10.03;94.17
60642;BME280;46837;52.446;-1.930;2023-03-17T03:56:09;98769.51;;;10.06;94.25
60642;BME280;46837;52.446;-1.930;2023-03-17T03:57:09;98774.46;;;10.09;94.20
60642;BME280;46837;52.446;-1.930;2023-03-17T03:58:09;98769.02;;;10.09;93.93
60642;BME280;46837;52.446;-1.930;2023-03-17T03:59:09;98768.74;;;10.09;93.85
60642;BME280;46837;52.446;-1.930;2023-03-17T04:00:09;98764.80;;;10.07;93.83
60642;BME280;46837;52.446;-1.930;2023-03-17T04:01:09;98760.18;;;10.05;93.78
60642;BME280;46837;52.446;-1.930;2023-03-17T04:02:09;98758.80;;;10.04;94.01
60642;BME280;46837;52.446;-1.930;2023-03-17T04:03:09;98758.60;;;10.05;94.04
60642;BME280;46837;52.446;-1.930;2023-03-17T04:04:09;98761.16;;;10.06;94.00
60642;BME280;46837;52.446;-1.930;2023-03-17T04:05:09;98762.34;;;10.07;93.91
60642;BME280;46837;52.446;-1.930;2023-03-17T04:06:09;98761.49;;;10.08;93.92
60642;BME280;46837;52.446;-1.930;2023-03-17T04:07:09;98763.81;;;10.10;93.83
60642;BME280;46837;52.446;-1.930;2023-03-17T04:08:09;98757.37;;;10.13;93.84
60642;BME280;46837;52.446;-1.930;2023-03-17T04:09:09;98752.45;;;10.13;93.52
60642;BME280;46837;52.446;-1.930;2023-03-17T04:10:10;98744.32;;;10.13;93.47
60642;BME280;46837;52.446;-1.930;2023-03-17T04:11:09;98743.82;;;10.07;93.44
60642;BME280;46837;52.446;-1.930;2023-03-17T04:12:09;98743.04;;;10.06;93.70
60642;BME280;46837;52.446;-1.930;2023-03-17T04:13:09;98745.78;;;10.07;93.88
60642;BME280;46837;52.446;-1.930;2023-03-17T04:14:09;98742.20;;;10.07;93.69
60642;BME280;46837;52.446;-1.930;2023-03-17T04:15:09;98740.95;;;10.07;93.61
60642;BME280;46837;52.446;-1.930;2023-03-17T04:16:09;98744.52;;;10.08;93.67
60642;BME280;46837;52.446;-1.930;2023-03-17T04:17:12;98747.46;;;10.09;93.64
60642;BME280;46837;52.446;-1.930;2023-03-17T04:18:09;98751.28;;;10.06;93.52
60642;BME280;46837;52.446;-1.930;2023-03-17T04:19:09;98754.93;;;10.07;93.70
60642;BME280;46837;52.446;-1.930;2023-03-17T04:20:09;98754.84;;;10.08;93.68
60642;BME280;46837;52.446;-1.930;2023-03-17T04:21:09;98753.12;;;10.07;93.53
60642;BME280;46837;52.446;-1.930;2023-03-17T04:22:09;98752.10;;;10.05;93.59
60642;BME280;46837;52.446;-1.930;2023-03-17T04:23:09;98756.41;;;10.06;93.71
60642;BME280;46837;52.446;-1.930;2023-03-17T04:24:09;98761.39;;;10.05;93.61
60642;BME280;46837;52.446;-1.930;2023-03-17T04:25:12;98760.30;;;10.04;93.79
60642;BME280;46837;52.446;-1.930;2023-03-17T04:26:09;98765.48;;;10.08;93.71
60642;BME280;46837;52.446;-1.930;2023-03-17T04:27:09;98768.52;;;10.09;93.56
60642;BME280;46837;52.446;-1.930;2023-03-17T04:28:09;98769.56;;;10.12;93.43
60642;BME280;46837;52.446;-1.930;2023-03-17T04:29:09;98766.28;;;10.09;93.22
60642;BME280;46837;52.446;-1.930;2023-03-17T04:30:09;98761.28;;;10.08;93.20
60642;BME280;46837;52.446;-1.930;2023-03-17T04:31:11;98769.44;;;10.07;93.25
60642;BME280;46837;52.446;-1.930;2023-03-17T04:32:11;98765.90;;;10.03;93.21
60642;BME280;46837;52.446;-1.930;2023-03-17T04:33:09;98765.70;;;10.01;93.26
60642;BME280;46837;52.446;-1.930;2023-03-17T04:34:12;98767.08;;;10.00;93.18
60642;BME280;46837;52.446;-1.930;2023-03-17T04:35:16;98769.42;;;9.98;93.08
60642;BME280;46837;52.446;-1.930;2023-03-17T04:36:17;98765.34;;;9.97;93.24
60642;BME280;46837;52.446;-1.930;2023-03-17T04:37:09;98758.82;;;9.96;93.04
60642;BME280;46837;52.446;-1.930;2023-03-17T04:38:10;98755.84;;;9.92;92.81
60642;BME280;46837;52.446;-1.930;2023-03-17T04:39:09;98752.78;;;9.88;92.89
60642;BME280;46837;52.446;-1.930;2023-03-17T04:40:09;98754.57;;;9.86;92.94
60642;BME280;46837;52.446;-1.930;2023-03-17T04:41:09;98750.93;;;9.86;92.95
60642;BME280;46837;52.446;-1.930;2023-03-17T04:42:09;98752.08;;;9.79;92.82
60642;BME280;46837;52.446;-1.930;2023-03-17T04:43:09;98752.35;;;9.75;93.13
60642;BME280;46837;52.446;-1.930;2023-03-17T04:44:09;98751.17;;;9.74;93.32
60642;BME280;46837;52.446;-1.930;2023-03-17T04:45:09;98753.82;;;9.72;93.40
60642;BME280;46837;52.446;-1.930;2023-03-17T04:46:09;98753.96;;;9.70;93.36
60642;BME280;46837;52.446;-1.930;2023-03-17T04:47:09;98753.14;;;9.69;93.53
60642;BME280;46837;52.446;-1.930;2023-03-17T04:48:09;98756.63;;;9.67;93.48
60642;BME280;46837;52.446;-1.930;2023-03-17T04:49:09;98759.96;;;9.60;93.49
60642;BME280;46837;52.446;-1.930;2023-03-17T04:50:09;98763.93;;;9.57;93.93
60642;BME280;46837;52.446;-1.930;2023-03-17T04:51:09;98762.94;;;9.51;93.98
60642;BME280;46837;52.446;-1.930;2023-03-17T04:52:09;98761.77;;;9.48;94.29
60642;BME280;46837;52.446;-1.930;2023-03-17T04:53:09;98758.71;;;9.45;94.38
60642;BME280;46837;52.446;-1.930;2023-03-17T04:54:09;98761.71;;;9.45;94.38
60642;BME280;46837;52.446;-1.930;2023-03-17T04:55:10;98763.40;;;9.45;94.38
60642;BME280;46837;52.446;-1.930;2023-03-17T04:56:09;98763.56;;;9.45;94.28
60642;BME280;46837;52.446;-1.930;2023-03-17T04:57:09;98759.79;;;9.47;94.23
60642;BME280;46837;52.446;-1.930;2023-03-17T04:58:09;98756.80;;;9.44;94.02
60642;BME280;46837;52.446;-1.930;2023-03-17T04:59:09;98756.02;;;9.43;94.01
60642;BME280;46837;52.446;-1.930;2023-03-17T05:00:09;98750.73;;;9.40;94.08
60642;BME280;46837;52.446;-1.930;2023-03-17T05:01:09;98753.41;;;9.39;94.26
60642;BME280;46837;52.446;-1.930;2023-03-17T05:02:09;98747.14;;;9.38;94.35
60642;BME280;46837;52.446;-1.930;2023-03-17T05:03:10;98751.45;;;9.39;94.25
60642;BME280;46837;52.446;-1.930;2023-03-17T05:04:09;98750.08;;;9.39;94.22
60642;BME280;46837;52.446;-1.930;2023-03-17T05:05:09;98757.01;;;9.39;94.06
60642;BME280;46837;52.446;-1.930;2023-03-17T05:06:09;98760.86;;;9.33;94.12
60642;BME280;46837;52.446;-1.930;2023-03-17T05:07:09;98762.88;;;9.33;94.47
60642;BME280;46837;52.446;-1.930;2023-03-17T05:08:09;98765.63;;;9.34;94.48
60642;BME280;46837;52.446;-1.930;2023-03-17T05:09:09;98767.45;;;9.33;94.38
60642;BME280;46837;52.446;-1.930;2023-03-17T05:10:09;98778.92;;;9.32;94.40
60642;BME280;46837;52.446;-1.930;2023-03-17T05:11:09;98775.48;;;9.32;94.35
60642;BME280;46837;52.446;-1.930;2023-03-17T05:12:09;98769.05;;;9.31;94.42
60642;BME280;46837;52.446;-1.930;2023-03-17T05:13:09;98773.35;;;9.29;94.49
60642;BME280;46837;52.446;-1.930;2023-03-17T05:14:09;98779.03;;;9.31;94.56
60642;BME280;46837;52.446;-1.930;2023-03-17T05:15:09;98778.32;;;9.31;94.39
60642;BME280;46837;52.446;-1.930;2023-03-17T05:16:09;98780.99;;;9.28;94.49
60642;BME280;46837;52.446;-1.930;2023-03-17T05:17:09;98776.75;;;9.31;94.75
60642;BME280;46837;52.446;-1.930;2023-03-17T05:18:09;98774.38;;;9.29;94.53
60642;BME280;46837;52.446;-1.930;2023-03-17T05:19:09;98773.47;;;9.31;94.59
60642;BME280;46837;52.446;-1.930;2023-03-17T05:20:10;98768.50;;;9.32;94.54
60642;BME280;46837;52.446;-1.930;2023-03-17T05:21:09;98761.20;;;9.32;94.30
60642;BME280;46837;52.446;-1.930;2023-03-17T05:22:09;98760.00;;;9.32;94.32